sensor_id;sensor_type;location;lat;lon;timestamp;P1;durP1;ratioP1;P2;durP2;ratioP2
42066;SDS011;27734;47.028;28.820;2022-10-31T00:00:55;27.73;;;12.20;;
42066;SDS011;27734;47.028;28.820;2022-10-31T00:03:38;27.60;;;12.43;;
42066;SDS011;27734;47.028;28.820;2022-10-31T00:06:09;22.90;;;11.97;;
42066;SDS011;27734;47.028;28.820;2022-10-31T00:08:40;23.90;;;12.17;;
42066;SDS011;27734;47.028;28.820;2022-10-31T00:11:11;26.13;;;11.77;;
42066;SDS011;27734;47.028;28.820;2022-10-31T00:13:42;29.03;;;12.30;;
42066;SDS011;27734;47.028;28.820;2022-10-31T00:16:17;24.17;;;11.73;;
42066;SDS011;27734;47.028;28.820;2022-10-31T00:18:49;25.63;;;12.17;;
42066;SDS011;27734;47.028;28.820;2022-10-31T00:21:21;24.77;;;11.07;;
42066;SDS011;27734;47.028;28.820;2022-10-31T00:23:52;28.43;;;11.37;;
42066;SDS011;27734;47.028;28.820;2022-10-31T00:26:24;27.23;;;12.23;;
42066;SDS011;27734;47.028;28.820;2022-10-31T00:28:55;26.00;;;11.90;;
42066;SDS011;27734;47.028;28.820;2022-10-31T00:31:29;24.63;;;11.18;;
42066;SDS011;27734;47.028;28.820;2022-10-31T00:34:01;29.23;;;12.33;;
42066;SDS011;27734;47.028;28.820;2022-10-31T00:36:32;25.33;;;12.13;;
42066;SDS011;27734;47.028;28.820;2022-10-31T00:39:04;26.87;;;11.90;;
42066;SDS011;27734;47.028;28.820;2022-10-31T00:41:35;26.30;;;11.17;;
42066;SDS011;27734;47.028;28.820;2022-10-31T00:44:11;27.37;;;11.87;;
42066;SDS011;27734;47.028;28.820;2022-10-31T00:46:42;26.37;;;11.47;;
42066;SDS011;27734;47.028;28.820;2022-10-31T00:49:13;25.87;;;11.70;;
42066;SDS011;27734;47.028;28.820;2022-10-31T00:51:44;24.27;;;11.53;;
42066;SDS011;27734;47.028;28.820;2022-10-31T00:54:16;24.77;;;11.00;;
42066;SDS011;27734;47.028;28.820;2022-10-31T00:56:47;27.80;;;11.50;;
42066;SDS011;27734;47.028;28.820;2022-10-31T00:59:18;24.97;;;11.20;;
42066;SDS011;27734;47.028;28.820;2022-10-31T01:01:49;24.20;;;11.50;;
42066;SDS011;27734;47.028;28.820;2022-10-31T01:04:20;24.77;;;10.70;;
42066;SDS011;27734;47.028;28.820;2022-10-31T01:06:51;23.63;;;11.30;;
42066;SDS011;27734;47.028;28.820;2022-10-31T01:09:25;26.97;;;11.93;;
42066;SDS011;27734;47.028;28.820;2022-10-31T01:11:56;23.43;;;11.17;;
42066;SDS011;27734;47.028;28.820;2022-10-31T01:14:27;24.10;;;11.40;;
42066;SDS011;27734;47.028;28.820;2022-10-31T01:16:59;24.83;;;11.33;;
42066;SDS011;27734;47.028;28.820;2022-10-31T01:19:30;24.50;;;10.93;;
42066;SDS011;27734;47.028;28.820;2022-10-31T01:22:01;22.97;;;10.77;;
42066;SDS011;27734;47.028;28.820;2022-10-31T01:24:32;27.53;;;12.30;;
42066;SDS011;27734;47.028;28.820;2022-10-31T01:27:03;26.67;;;12.40;;
42066;SDS011;27734;47.028;28.820;2022-10-31T01:29:35;25.43;;;12.13;;
42066;SDS011;27734;47.028;28.820;2022-10-31T01:32:07;26.47;;;11.90;;
42066;SDS011;27734;47.028;28.820;2022-10-31T01:34:38;23.33;;;11.60;;
42066;SDS011;27734;47.028;28.820;2022-10-31T01:37:09;23.67;;;11.70;;
42066;SDS011;27734;47.028;28.820;2022-10-31T01:39:40;28.23;;;14.40;;
42066;SDS011;27734;47.028;28.820;2022-10-31T01:42:11;41.00;;;23.93;;
42066;SDS011;27734;47.028;28.820;2022-10-31T01:44:55;44.57;;;29.30;;
42066;SDS011;27734;47.028;28.820;2022-10-31T01:47:35;43.07;;;27.47;;
42066;SDS011;27734;47.028;28.820;2022-10-31T01:50:15;47.60;;;31.43;;
42066;SDS011;27734;47.028;28.820;2022-10-31T01:52:55;46.17;;;31.33;;
42066;SDS011;27734;47.028;28.820;2022-10-31T01:55:28;40.27;;;24.93;;
42066;SDS011;27734;47.028;28.820;2022-10-31T02:00:34;29.10;;;13.27;;
42066;SDS011;27734;47.028;28.820;2022-10-31T02:03:05;28.87;;;14.43;;
42066;SDS011;27734;47.028;28.820;2022-10-31T02:05:36;28.57;;;12.97;;
42066;SDS011;27734;47.028;28.820;2022-10-31T02:08:09;23.87;;;12.13;;
42066;SDS011;27734;47.028;28.820;2022-10-31T02:10:45;26.07;;;11.80;;
42066;SDS011;27734;47.028;28.820;2022-10-31T02:13:16;23.67;;;11.30;;
42066;SDS011;27734;47.028;28.820;2022-10-31T02:15:51;22.87;;;11.30;;
42066;SDS011;27734;47.028;28.820;2022-10-31T02:18:24;24.80;;;11.60;;
42066;SDS011;27734;47.028;28.820;2022-10-31T02:21:00;23.53;;;11.73;;
42066;SDS011;27734;47.028;28.820;2022-10-31T02:23:45;23.10;;;11.65;;
42066;SDS011;27734;47.028;28.820;2022-10-31T02:29:56;26.30;;;12.00;;
42066;SDS011;27734;47.028;28.820;2022-10-31T02:32:41;26.20;;;11.27;;
42066;SDS011;27734;47.028;28.820;2022-10-31T02:35:23;25.70;;;11.47;;
42066;SDS011;27734;47.028;28.820;2022-10-31T02:38:05;25.80;;;11.90;;
42066;SDS011;27734;47.028;28.820;2022-10-31T02:40:45;25.83;;;12.13;;
42066;SDS011;27734;47.028;28.820;2022-10-31T02:43:35;25.63;;;12.30;;
42066;SDS011;27734;47.028;28.820;2022-10-31T02:46:11;25.73;;;11.87;;
42066;SDS011;27734;47.028;28.820;2022-10-31T02:48:48;27.47;;;12.20;;
42066;SDS011;27734;47.028;28.820;2022-10-31T02:51:24;26.30;;;12.27;;
42066;SDS011;27734;47.028;28.820;2022-10-31T02:53:56;22.40;;;12.43;;
42066;SDS011;27734;47.028;28.820;2022-10-31T02:56:27;23.03;;;10.70;;
42066;SDS011;27734;47.028;28.820;2022-10-31T02:58:59;26.30;;;12.50;;
42066;SDS011;27734;47.028;28.820;2022-10-31T03:07:42;24.50;;;11.03;;
42066;SDS011;27734;47.028;28.820;2022-10-31T03:10:23;26.43;;;12.30;;
42066;SDS011;27734;47.028;28.820;2022-10-31T03:13:01;26.10;;;11.63;;
42066;SDS011;27734;47.028;28.820;2022-10-31T03:15:37;22.97;;;11.93;;
42066;SDS011;27734;47.028;28.820;2022-10-31T03:18:12;26.20;;;12.10;;
42066;SDS011;27734;47.028;28.820;2022-10-31T03:20:51;26.13;;;12.13;;
42066;SDS011;27734;47.028;28.820;2022-10-31T03:23:29;24.83;;;12.37;;
42066;SDS011;27734;47.028;28.820;2022-10-31T03:26:04;26.83;;;13.10;;
42066;SDS011;27734;47.028;28.820;2022-10-31T03:28:40;26.20;;;13.87;;
42066;SDS011;27734;47.028;28.820;2022-10-31T03:31:18;29.07;;;14.63;;
42066;SDS011;27734;47.028;28.820;2022-10-31T03:33:52;26.13;;;13.10;;
42066;SDS011;27734;47.028;28.820;2022-10-31T03:36:31;26.07;;;13.63;;
42066;SDS011;27734;47.028;28.820;2022-10-31T03:39:05;29.80;;;14.67;;
42066;SDS011;27734;47.028;28.820;2022-10-31T03:41:40;27.47;;;13.80;;
42066;SDS011;27734;47.028;28.820;2022-10-31T03:44:16;31.73;;;15.53;;
42066;SDS011;27734;47.028;28.820;2022-10-31T03:46:57;30.97;;;14.37;;
42066;SDS011;27734;47.028;28.820;2022-10-31T03:49:29;26.83;;;14.43;;
42066;SDS011;27734;47.028;28.820;2022-10-31T03:52:02;31.33;;;15.57;;
42066;SDS011;27734;47.028;28.820;2022-10-31T03:54:40;30.20;;;14.47;;
42066;SDS011;27734;47.028;28.820;2022-10-31T03:57:14;30.23;;;15.27;;
42066;SDS011;27734;47.028;28.820;2022-10-31T03:59:52;33.27;;;16.60;;
42066;SDS011;27734;47.028;28.820;2022-10-31T04:02:28;30.50;;;15.07;;
42066;SDS011;27734;47.028;28.820;2022-10-31T04:05:03;29.60;;;15.50;;
42066;SDS011;27734;47.028;28.820;2022-10-31T04:07:36;31.60;;;15.90;;
42066;SDS011;27734;47.028;28.820;2022-10-31T04:10:11;28.57;;;15.20;;
42066;SDS011;27734;47.028;28.820;2022-10-31T04:12:46;32.87;;;17.00;;
42066;SDS011;27734;47.028;28.820;2022-10-31T04:15:23;33.93;;;17.47;;
42066;SDS011;27734;47.028;28.820;2022-10-31T04:17:58;32.48;;;17.10;;
42066;SDS011;27734;47.028;28.820;2022-10-31T04:20:33;33.07;;;16.47;;
42066;SDS011;27734;47.028;28.820;2022-10-31T04:23:25;33.20;;;17.10;;
42066;SDS011;27734;47.028;28.820;2022-10-31T04:25:57;32.23;;;16.33;;
42066;SDS011;27734;47.028;28.820;2022-10-31T04:28:28;31.53;;;17.83;;
42066;SDS011;27734;47.028;28.820;2022-10-31T04:31:01;32.63;;;16.37;;
42066;SDS011;27734;47.028;28.820;2022-10-31T04:33:35;31.93;;;17.52;;
42066;SDS011;27734;47.028;28.820;2022-10-31T04:36:08;30.87;;;17.30;;
42066;SDS011;27734;47.028;28.820;2022-10-31T04:38:39;35.73;;;17.90;;
42066;SDS011;27734;47.028;28.820;2022-10-31T04:41:18;31.13;;;17.73;;
42066;SDS011;27734;47.028;28.820;2022-10-31T04:43:55;32.57;;;17.60;;
42066;SDS011;27734;47.028;28.820;2022-10-31T04:46:28;36.80;;;18.12;;
42066;SDS011;27734;47.028;28.820;2022-10-31T04:48:59;33.57;;;17.80;;
42066;SDS011;27734;47.028;28.820;2022-10-31T04:51:31;34.50;;;18.23;;
42066;SDS011;27734;47.028;28.820;2022-10-31T04:54:02;34.53;;;18.17;;
42066;SDS011;27734;47.028;28.820;2022-10-31T04:56:33;32.63;;;17.63;;
42066;SDS011;27734;47.028;28.820;2022-10-31T04:59:11;32.40;;;17.87;;
42066;SDS011;27734;47.028;28.820;2022-10-31T05:01:48;32.90;;;18.30;;
42066;SDS011;27734;47.028;28.820;2022-10-31T05:04:24;35.63;;;20.33;;
42066;SDS011;27734;47.028;28.820;2022-10-31T05:06:55;39.33;;;21.53;;
42066;SDS011;27734;47.028;28.820;2022-10-31T05:09:27;39.47;;;21.40;;
42066;SDS011;27734;47.028;28.820;2022-10-31T05:11:58;36.97;;;20.57;;
42066;SDS011;27734;47.028;28.820;2022-10-31T05:14:47;35.50;;;20.97;;
42066;SDS011;27734;47.028;28.820;2022-10-31T05:17:37;53.87;;;22.13;;
42066;SDS011;27734;47.028;28.820;2022-10-31T05:20:31;39.33;;;22.27;;
42066;SDS011;27734;47.028;28.820;2022-10-31T05:23:21;36.60;;;20.37;;
42066;SDS011;27734;47.028;28.820;2022-10-31T05:25:52;37.43;;;21.50;;
42066;SDS011;27734;47.028;28.820;2022-10-31T05:28:23;40.90;;;20.70;;
42066;SDS011;27734;47.028;28.820;2022-10-31T05:30:55;36.55;;;21.15;;
42066;SDS011;27734;47.028;28.820;2022-10-31T05:33:26;35.97;;;20.97;;
42066;SDS011;27734;47.028;28.820;2022-10-31T05:36:15;38.67;;;20.97;;
42066;SDS011;27734;47.028;28.820;2022-10-31T05:38:52;36.43;;;21.50;;
42066;SDS011;27734;47.028;28.820;2022-10-31T05:41:28;36.90;;;21.73;;
42066;SDS011;27734;47.028;28.820;2022-10-31T05:44:11;42.30;;;22.23;;
42066;SDS011;27734;47.028;28.820;2022-10-31T05:47:01;38.20;;;21.87;;
42066;SDS011;27734;47.028;28.820;2022-10-31T05:49:38;38.27;;;21.73;;
42066;SDS011;27734;47.028;28.820;2022-10-31T05:52:12;37.33;;;21.40;;
42066;SDS011;27734;47.028;28.820;2022-10-31T05:54:50;37.93;;;20.60;;
42066;SDS011;27734;47.028;28.820;2022-10-31T05:57:22;36.37;;;20.80;;
42066;SDS011;27734;47.028;28.820;2022-10-31T05:59:54;38.07;;;21.43;;
42066;SDS011;27734;47.028;28.820;2022-10-31T06:02:25;40.37;;;22.10;;
42066;SDS011;27734;47.028;28.820;2022-10-31T06:05:23;38.37;;;22.27;;
42066;SDS011;27734;47.028;28.820;2022-10-31T06:07:54;39.57;;;22.63;;
42066;SDS011;27734;47.028;28.820;2022-10-31T06:10:26;36.23;;;21.20;;
42066;SDS011;27734;47.028;28.820;2022-10-31T06:12:58;36.33;;;22.10;;
42066;SDS011;27734;47.028;28.820;2022-10-31T06:15:47;36.83;;;20.93;;
42066;SDS011;27734;47.028;28.820;2022-10-31T06:18:19;37.50;;;21.17;;
42066;SDS011;27734;47.028;28.820;2022-10-31T06:20:52;40.60;;;22.90;;
42066;SDS011;27734;47.028;28.820;2022-10-31T06:23:24;37.40;;;20.53;;
42066;SDS011;27734;47.028;28.820;2022-10-31T06:26:07;39.30;;;22.13;;
42066;SDS011;27734;47.028;28.820;2022-10-31T06:28:39;35.67;;;21.13;;
42066;SDS011;27734;47.028;28.820;2022-10-31T06:31:23;38.10;;;22.80;;
42066;SDS011;27734;47.028;28.820;2022-10-31T06:33:55;38.37;;;22.57;;
42066;SDS011;27734;47.028;28.820;2022-10-31T06:36:27;36.20;;;21.67;;
42066;SDS011;27734;47.028;28.820;2022-10-31T06:38:59;36.10;;;20.50;;
42066;SDS011;27734;47.028;28.820;2022-10-31T06:41:31;37.78;;;21.70;;
42066;SDS011;27734;47.028;28.820;2022-10-31T06:44:05;37.07;;;22.67;;
42066;SDS011;27734;47.028;28.820;2022-10-31T06:46:59;37.43;;;20.57;;
42066;SDS011;27734;47.028;28.820;2022-10-31T06:50:00;36.80;;;21.75;;
42066;SDS011;27734;47.028;28.820;2022-10-31T06:52:31;36.90;;;21.87;;
42066;SDS011;27734;47.028;28.820;2022-10-31T06:55:04;36.77;;;21.03;;
42066;SDS011;27734;47.028;28.820;2022-10-31T06:57:36;39.60;;;22.53;;
42066;SDS011;27734;47.028;28.820;2022-10-31T07:00:10;38.33;;;22.30;;
42066;SDS011;27734;47.028;28.820;2022-10-31T07:02:51;38.87;;;21.90;;
42066;SDS011;27734;47.028;28.820;2022-10-31T07:05:26;37.20;;;21.37;;
42066;SDS011;27734;47.028;28.820;2022-10-31T07:07:58;39.90;;;20.70;;
42066;SDS011;27734;47.028;28.820;2022-10-31T07:10:31;41.43;;;22.47;;
42066;SDS011;27734;47.028;28.820;2022-10-31T07:13:05;37.17;;;20.48;;
42066;SDS011;27734;47.028;28.820;2022-10-31T07:15:42;37.33;;;20.50;;
42066;SDS011;27734;47.028;28.820;2022-10-31T07:18:14;36.47;;;21.03;;
42066;SDS011;27734;47.028;28.820;2022-10-31T07:20:51;34.93;;;20.47;;
42066;SDS011;27734;47.028;28.820;2022-10-31T07:23:23;38.40;;;19.47;;
42066;SDS011;27734;47.028;28.820;2022-10-31T07:26:16;37.63;;;19.53;;
42066;SDS011;27734;47.028;28.820;2022-10-31T07:28:49;36.97;;;18.27;;
42066;SDS011;27734;47.028;28.820;2022-10-31T07:31:22;34.18;;;18.15;;
42066;SDS011;27734;47.028;28.820;2022-10-31T07:33:55;34.63;;;18.77;;
42066;SDS011;27734;47.028;28.820;2022-10-31T07:36:29;31.50;;;18.33;;
42066;SDS011;27734;47.028;28.820;2022-10-31T07:39:04;33.80;;;18.03;;
42066;SDS011;27734;47.028;28.820;2022-10-31T07:41:36;32.70;;;17.25;;
42066;SDS011;27734;47.028;28.820;2022-10-31T07:44:10;36.17;;;17.90;;
42066;SDS011;27734;47.028;28.820;2022-10-31T07:47:15;31.40;;;16.70;;
42066;SDS011;27734;47.028;28.820;2022-10-31T07:50:11;28.00;;;15.83;;
42066;SDS011;27734;47.028;28.820;2022-10-31T07:53:00;31.37;;;16.30;;
42066;SDS011;27734;47.028;28.820;2022-10-31T07:55:54;25.57;;;14.43;;
42066;SDS011;27734;47.028;28.820;2022-10-31T07:58:30;31.47;;;15.87;;
42066;SDS011;27734;47.028;28.820;2022-10-31T08:01:01;27.87;;;14.33;;
42066;SDS011;27734;47.028;28.820;2022-10-31T08:03:36;29.97;;;15.33;;
42066;SDS011;27734;47.028;28.820;2022-10-31T08:06:25;29.73;;;14.30;;
42066;SDS011;27734;47.028;28.820;2022-10-31T08:09:02;27.03;;;13.77;;
42066;SDS011;27734;47.028;28.820;2022-10-31T08:11:34;25.20;;;13.50;;
42066;SDS011;27734;47.028;28.820;2022-10-31T08:14:05;25.93;;;13.30;;
42066;SDS011;27734;47.028;28.820;2022-10-31T08:16:37;24.23;;;13.10;;
42066;SDS011;27734;47.028;28.820;2022-10-31T08:19:10;28.17;;;13.90;;
42066;SDS011;27734;47.028;28.820;2022-10-31T08:21:44;22.17;;;11.40;;
42066;SDS011;27734;47.028;28.820;2022-10-31T08:24:16;25.80;;;11.40;;
42066;SDS011;27734;47.028;28.820;2022-10-31T08:26:50;24.37;;;11.90;;
42066;SDS011;27734;47.028;28.820;2022-10-31T08:29:23;22.47;;;10.23;;
42066;SDS011;27734;47.028;28.820;2022-10-31T08:31:58;20.93;;;9.33;;
42066;SDS011;27734;47.028;28.820;2022-10-31T08:35:05;21.37;;;9.23;;
42066;SDS011;27734;47.028;28.820;2022-10-31T08:37:56;21.17;;;8.73;;
42066;SDS011;27734;47.028;28.820;2022-10-31T08:40:28;20.27;;;9.07;;
42066;SDS011;27734;47.028;28.820;2022-10-31T08:43:12;19.75;;;8.65;;
42066;SDS011;27734;47.028;28.820;2022-10-31T08:45:48;17.90;;;8.03;;
42066;SDS011;27734;47.028;28.820;2022-10-31T08:48:25;18.70;;;8.40;;
42066;SDS011;27734;47.028;28.820;2022-10-31T08:50:59;17.87;;;8.20;;
42066;SDS011;27734;47.028;28.820;2022-10-31T08:53:31;20.80;;;8.27;;
42066;SDS011;27734;47.028;28.820;2022-10-31T08:56:22;20.73;;;8.13;;
42066;SDS011;27734;47.028;28.820;2022-10-31T08:58:56;21.53;;;7.37;;
42066;SDS011;27734;47.028;28.820;2022-10-31T09:01:56;15.17;;;7.30;;
42066;SDS011;27734;47.028;28.820;2022-10-31T09:06:57;16.93;;;7.73;;
42066;SDS011;27734;47.028;28.820;2022-10-31T09:09:28;17.90;;;7.70;;
42066;SDS011;27734;47.028;28.820;2022-10-31T09:11:59;19.47;;;7.50;;
42066;SDS011;27734;47.028;28.820;2022-10-31T09:14:50;16.43;;;7.53;;
42066;SDS011;27734;47.028;28.820;2022-10-31T09:17:33;19.20;;;7.65;;
42066;SDS011;27734;47.028;28.820;2022-10-31T09:20:36;17.60;;;7.17;;
42066;SDS011;27734;47.028;28.820;2022-10-31T09:23:10;15.68;;;7.55;;
42066;SDS011;27734;47.028;28.820;2022-10-31T09:25:43;20.55;;;8.70;;
42066;SDS011;27734;47.028;28.820;2022-10-31T09:28:34;21.90;;;8.30;;
42066;SDS011;27734;47.028;28.820;2022-10-31T09:31:12;19.75;;;8.20;;
42066;SDS011;27734;47.028;28.820;2022-10-31T09:33:49;16.20;;;7.60;;
42066;SDS011;27734;47.028;28.820;2022-10-31T09:36:40;18.33;;;8.13;;
42066;SDS011;27734;47.028;28.820;2022-10-31T09:39:21;20.20;;;8.27;;
42066;SDS011;27734;47.028;28.820;2022-10-31T09:44:58;17.30;;;8.07;;
42066;SDS011;27734;47.028;28.820;2022-10-31T09:47:43;21.50;;;8.87;;
42066;SDS011;27734;47.028;28.820;2022-10-31T09:50:48;21.33;;;8.47;;
42066;SDS011;27734;47.028;28.820;2022-10-31T09:53:51;20.80;;;8.87;;
42066;SDS011;27734;47.028;28.820;2022-10-31T09:56:29;19.07;;;9.27;;
42066;SDS011;27734;47.028;28.820;2022-10-31T09:59:04;24.27;;;9.10;;
42066;SDS011;27734;47.028;28.820;2022-10-31T10:01:42;20.37;;;9.80;;
42066;SDS011;27734;47.028;28.820;2022-10-31T10:04:28;19.37;;;8.87;;
42066;SDS011;27734;47.028;28.820;2022-10-31T10:07:13;19.23;;;8.73;;
42066;SDS011;27734;47.028;28.820;2022-10-31T10:10:15;22.25;;;9.55;;
42066;SDS011;27734;47.028;28.820;2022-10-31T10:16:28;21.43;;;8.83;;
42066;SDS011;27734;47.028;28.820;2022-10-31T10:19:19;19.90;;;9.50;;
42066;SDS011;27734;47.028;28.820;2022-10-31T10:22:01;20.67;;;9.87;;
42066;SDS011;27734;47.028;28.820;2022-10-31T10:24:47;21.37;;;10.10;;
42066;SDS011;27734;47.028;28.820;2022-10-31T10:27:31;22.10;;;9.43;;
42066;SDS011;27734;47.028;28.820;2022-10-31T10:30:13;23.53;;;9.97;;
42066;SDS011;27734;47.028;28.820;2022-10-31T10:32:49;21.40;;;9.80;;
42066;SDS011;27734;47.028;28.820;2022-10-31T10:35:27;21.07;;;9.27;;
42066;SDS011;27734;47.028;28.820;2022-10-31T10:38:07;20.63;;;9.37;;
42066;SDS011;27734;47.028;28.820;2022-10-31T10:40:44;17.37;;;8.17;;
42066;SDS011;27734;47.028;28.820;2022-10-31T10:43:23;19.70;;;9.23;;
42066;SDS011;27734;47.028;28.820;2022-10-31T10:46:05;17.07;;;8.70;;
42066;SDS011;27734;47.028;28.820;2022-10-31T10:49:17;17.83;;;8.23;;
42066;SDS011;27734;47.028;28.820;2022-10-31T10:51:52;18.47;;;8.37;;
42066;SDS011;27734;47.028;28.820;2022-10-31T10:54:39;18.20;;;8.20;;
42066;SDS011;27734;47.028;28.820;2022-10-31T10:57:21;15.63;;;6.97;;
42066;SDS011;27734;47.028;28.820;2022-10-31T11:00:15;16.57;;;7.23;;
42066;SDS011;27734;47.028;28.820;2022-10-31T11:03:03;18.13;;;7.70;;
42066;SDS011;27734;47.028;28.820;2022-10-31T11:05:36;17.60;;;7.27;;
42066;SDS011;27734;47.028;28.820;2022-10-31T11:08:09;16.03;;;7.67;;
42066;SDS011;27734;47.028;28.820;2022-10-31T11:10:43;16.13;;;7.17;;
42066;SDS011;27734;47.028;28.820;2022-10-31T11:13:23;17.30;;;7.80;;
42066;SDS011;27734;47.028;28.820;2022-10-31T11:16:01;16.03;;;7.30;;
42066;SDS011;27734;47.028;28.820;2022-10-31T11:18:39;16.77;;;7.20;;
42066;SDS011;27734;47.028;28.820;2022-10-31T11:21:21;18.57;;;7.60;;
42066;SDS011;27734;47.028;28.820;2022-10-31T11:24:08;16.03;;;7.70;;
42066;SDS011;27734;47.028;28.820;2022-10-31T11:26:51;18.63;;;7.47;;
42066;SDS011;27734;47.028;28.820;2022-10-31T11:29:34;17.23;;;7.40;;
42066;SDS011;27734;47.028;28.820;2022-10-31T11:32:08;14.87;;;6.63;;
42066;SDS011;27734;47.028;28.820;2022-10-31T11:34:49;18.30;;;7.20;;
42066;SDS011;27734;47.028;28.820;2022-10-31T11:37:25;14.10;;;5.80;;
42066;SDS011;27734;47.028;28.820;2022-10-31T11:39:58;13.62;;;5.75;;
42066;SDS011;27734;47.028;28.820;2022-10-31T11:42:44;17.10;;;6.93;;
42066;SDS011;27734;47.028;28.820;2022-10-31T11:45:27;15.23;;;6.27;;
42066;SDS011;27734;47.028;28.820;2022-10-31T11:48:14;14.60;;;6.07;;
42066;SDS011;27734;47.028;28.820;2022-10-31T11:50:55;16.57;;;6.00;;
42066;SDS011;27734;47.028;28.820;2022-10-31T11:53:28;13.70;;;5.63;;
42066;SDS011;27734;47.028;28.820;2022-10-31T11:56:10;12.90;;;5.20;;
42066;SDS011;27734;47.028;28.820;2022-10-31T12:01:40;11.50;;;5.30;;
42066;SDS011;27734;47.028;28.820;2022-10-31T12:04:22;12.90;;;5.10;;
42066;SDS011;27734;47.028;28.820;2022-10-31T12:07:00;11.40;;;5.37;;
42066;SDS011;27734;47.028;28.820;2022-10-31T12:09:34;10.70;;;5.00;;
42066;SDS011;27734;47.028;28.820;2022-10-31T12:15:31;13.30;;;5.05;;
42066;SDS011;27734;47.028;28.820;2022-10-31T12:18:25;10.43;;;4.50;;
42066;SDS011;27734;47.028;28.820;2022-10-31T12:21:15;15.30;;;5.63;;
42066;SDS011;27734;47.028;28.820;2022-10-31T12:24:03;14.87;;;5.60;;
42066;SDS011;27734;47.028;28.820;2022-10-31T12:26:49;12.03;;;4.70;;
42066;SDS011;27734;47.028;28.820;2022-10-31T12:29:36;12.47;;;4.57;;
42066;SDS011;27734;47.028;28.820;2022-10-31T12:32:23;11.10;;;4.97;;
42066;SDS011;27734;47.028;28.820;2022-10-31T12:38:33;11.47;;;4.90;;
42066;SDS011;27734;47.028;28.820;2022-10-31T12:41:26;14.97;;;5.77;;
42066;SDS011;27734;47.028;28.820;2022-10-31T12:44:17;13.70;;;5.13;;
42066;SDS011;27734;47.028;28.820;2022-10-31T12:47:32;12.53;;;5.40;;
42066;SDS011;27734;47.028;28.820;2022-10-31T12:50:17;11.53;;;4.80;;
42066;SDS011;27734;47.028;28.820;2022-10-31T12:55:40;12.17;;;4.53;;
42066;SDS011;27734;47.028;28.820;2022-10-31T12:58:20;11.23;;;4.50;;
42066;SDS011;27734;47.028;28.820;2022-10-31T13:01:01;12.17;;;4.43;;
42066;SDS011;27734;47.028;28.820;2022-10-31T13:03:39;7.63;;;4.10;;
42066;SDS011;27734;47.028;28.820;2022-10-31T13:06:24;11.07;;;3.97;;
42066;SDS011;27734;47.028;28.820;2022-10-31T13:09:05;8.87;;;4.00;;
42066;SDS011;27734;47.028;28.820;2022-10-31T13:11:40;10.33;;;3.90;;
42066;SDS011;27734;47.028;28.820;2022-10-31T13:14:19;8.23;;;3.47;;
42066;SDS011;27734;47.028;28.820;2022-10-31T13:16:58;10.63;;;3.67;;
42066;SDS011;27734;47.028;28.820;2022-10-31T13:19:38;6.30;;;3.53;;
42066;SDS011;27734;47.028;28.820;2022-10-31T13:22:12;7.73;;;3.63;;
42066;SDS011;27734;47.028;28.820;2022-10-31T13:24:50;9.53;;;3.60;;
42066;SDS011;27734;47.028;28.820;2022-10-31T13:27:28;9.07;;;3.77;;
42066;SDS011;27734;47.028;28.820;2022-10-31T13:30:15;9.23;;;3.90;;
42066;SDS011;27734;47.028;28.820;2022-10-31T13:32:49;10.70;;;4.50;;
42066;SDS011;27734;47.028;28.820;2022-10-31T13:35:26;10.70;;;4.20;;
42066;SDS011;27734;47.028;28.820;2022-10-31T13:38:13;8.50;;;3.93;;
42066;SDS011;27734;47.028;28.820;2022-10-31T13:40:56;11.50;;;3.92;;
42066;SDS011;27734;47.028;28.820;2022-10-31T13:43:33;8.90;;;3.80;;
42066;SDS011;27734;47.028;28.820;2022-10-31T13:46:24;8.70;;;3.63;;
42066;SDS011;27734;47.028;28.820;2022-10-31T13:49:03;10.28;;;3.90;;
42066;SDS011;27734;47.028;28.820;2022-10-31T13:51:50;12.87;;;4.13;;
42066;SDS011;27734;47.028;28.820;2022-10-31T13:54:23;10.67;;;3.50;;
42066;SDS011;27734;47.028;28.820;2022-10-31T13:57:01;9.10;;;3.87;;
42066;SDS011;27734;47.028;28.820;2022-10-31T13:59:36;10.13;;;3.90;;
42066;SDS011;27734;47.028;28.820;2022-10-31T14:02:16;7.03;;;3.33;;
42066;SDS011;27734;47.028;28.820;2022-10-31T14:04:58;8.60;;;3.20;;
42066;SDS011;27734;47.028;28.820;2022-10-31T14:07:49;7.37;;;3.57;;
42066;SDS011;27734;47.028;28.820;2022-10-31T14:10:24;5.80;;;3.20;;
42066;SDS011;27734;47.028;28.820;2022-10-31T14:13:05;8.73;;;3.40;;
42066;SDS011;27734;47.028;28.820;2022-10-31T14:15:52;7.43;;;3.00;;
42066;SDS011;27734;47.028;28.820;2022-10-31T14:18:28;9.63;;;3.27;;
42066;SDS011;27734;47.028;28.820;2022-10-31T14:21:16;8.43;;;3.37;;
42066;SDS011;27734;47.028;28.820;2022-10-31T14:24:00;7.13;;;3.30;;
42066;SDS011;27734;47.028;28.820;2022-10-31T14:26:50;9.10;;;3.70;;
42066;SDS011;27734;47.028;28.820;2022-10-31T14:29:27;6.20;;;3.30;;
42066;SDS011;27734;47.028;28.820;2022-10-31T14:32:01;9.03;;;3.57;;
42066;SDS011;27734;47.028;28.820;2022-10-31T14:34:50;7.37;;;3.03;;
42066;SDS011;27734;47.028;28.820;2022-10-31T14:37:42;9.70;;;3.63;;
42066;SDS011;27734;47.028;28.820;2022-10-31T14:40:46;7.33;;;3.33;;
42066;SDS011;27734;47.028;28.820;2022-10-31T14:46:40;8.23;;;3.70;;
42066;SDS011;27734;47.028;28.820;2022-10-31T14:49:21;11.90;;;3.60;;
42066;SDS011;27734;47.028;28.820;2022-10-31T14:52:05;15.25;;;3.90;;
42066;SDS011;27734;47.028;28.820;2022-10-31T14:54:43;13.33;;;4.50;;
42066;SDS011;27734;47.028;28.820;2022-10-31T14:57:21;10.40;;;3.53;;
42066;SDS011;27734;47.028;28.820;2022-10-31T14:59:57;10.47;;;3.90;;
42066;SDS011;27734;47.028;28.820;2022-10-31T15:02:33;14.03;;;4.30;;
42066;SDS011;27734;47.028;28.820;2022-10-31T15:05:10;9.07;;;3.90;;
42066;SDS011;27734;47.028;28.820;2022-10-31T15:07:54;19.73;;;3.98;;
42066;SDS011;27734;47.028;28.820;2022-10-31T15:10:27;11.57;;;3.80;;
42066;SDS011;27734;47.028;28.820;2022-10-31T15:13:09;13.30;;;4.17;;
42066;SDS011;27734;47.028;28.820;2022-10-31T15:15:47;11.43;;;4.40;;
42066;SDS011;27734;47.028;28.820;2022-10-31T15:18:23;11.47;;;4.27;;
42066;SDS011;27734;47.028;28.820;2022-10-31T15:20:57;11.97;;;4.33;;
42066;SDS011;27734;47.028;28.820;2022-10-31T15:23:28;13.30;;;4.80;;
42066;SDS011;27734;47.028;28.820;2022-10-31T15:26:00;14.80;;;4.83;;
42066;SDS011;27734;47.028;28.820;2022-10-31T15:28:34;15.25;;;5.08;;
42066;SDS011;27734;47.028;28.820;2022-10-31T15:31:12;17.17;;;6.80;;
42066;SDS011;27734;47.028;28.820;2022-10-31T15:33:47;18.23;;;6.70;;
42066;SDS011;27734;47.028;28.820;2022-10-31T15:36:20;22.07;;;6.50;;
42066;SDS011;27734;47.028;28.820;2022-10-31T15:38:56;20.33;;;6.17;;
42066;SDS011;27734;47.028;28.820;2022-10-31T15:41:32;19.10;;;6.47;;
42066;SDS011;27734;47.028;28.820;2022-10-31T15:44:11;16.50;;;6.37;;
42066;SDS011;27734;47.028;28.820;2022-10-31T15:46:44;16.73;;;6.27;;
42066;SDS011;27734;47.028;28.820;2022-10-31T15:49:36;21.10;;;6.80;;
42066;SDS011;27734;47.028;28.820;2022-10-31T15:52:11;22.63;;;6.90;;
42066;SDS011;27734;47.028;28.820;2022-10-31T15:54:47;22.43;;;6.30;;
42066;SDS011;27734;47.028;28.820;2022-10-31T15:57:25;23.37;;;7.57;;